createdAt,value
2022-10-24T00:03:18.538Z,4.13
2022-10-24T00:08:24.253Z,4.47
2022-10-24T00:13:30.244Z,4.53
2022-10-24T00:18:36.371Z,4.67
2022-10-24T00:23:41.954Z,3.83
2022-10-24T00:28:48.112Z,4.80
2022-10-24T00:33:53.591Z,4.33
2022-10-24T00:38:59.039Z,4.73
2022-10-24T00:44:24.384Z,4.00
2022-10-24T00:49:35.522Z,3.87
2022-10-24T00:54:42.515Z,4.30
2022-10-24T00:59:50.882Z,4.43
2022-10-24T01:04:56.620Z,4.83
2022-10-24T01:10:08.137Z,4.13
2022-10-24T01:15:25.496Z,4.23
2022-10-24T01:20:43.079Z,4.20
2022-10-24T01:25:57.738Z,5.10
2022-10-24T01:31:09.038Z,3.97
2022-10-24T01:36:17.455Z,3.87
2022-10-24T01:41:26.277Z,4.23
2022-10-24T01:46:34.773Z,4.37
2022-10-24T01:51:42.700Z,4.77
2022-10-24T01:56:48.406Z,4.50
2022-10-24T02:01:56.494Z,4.37
2022-10-24T02:07:07.758Z,4.60
2022-10-24T02:12:15.989Z,4.13
2022-10-24T02:17:21.641Z,4.40
2022-10-24T02:22:32.854Z,4.37
2022-10-24T02:27:44.690Z,4.80
2022-10-24T02:32:56.282Z,4.47
2022-10-24T02:38:07.295Z,3.90
2022-10-24T02:43:14.698Z,4.77
2022-10-24T02:48:23.142Z,4.73
2022-10-24T02:53:29.225Z,4.60
2022-10-24T02:58:34.816Z,4.70
2022-10-24T03:03:40.274Z,4.43
2022-10-24T03:08:45.720Z,4.77
2022-10-24T03:13:51.717Z,4.73
2022-10-24T03:18:57.516Z,4.83
2022-10-24T03:24:03.145Z,5.60
2022-10-24T03:29:08.779Z,5.30
2022-10-24T03:34:14.398Z,5.27
2022-10-24T03:39:19.773Z,5.73
2022-10-24T03:44:25.355Z,5.53
2022-10-24T03:49:32.485Z,5.57
2022-10-24T03:54:38.968Z,5.70
2022-10-24T03:59:44.555Z,5.60
2022-10-24T04:04:50.096Z,5.47
2022-10-24T04:09:55.804Z,6.10
2022-10-24T04:15:04.120Z,6.07
2022-10-24T04:20:09.511Z,5.50
2022-10-24T04:25:15.128Z,5.27
2022-10-24T04:30:20.830Z,6.33
2022-10-24T04:35:26.442Z,6.97
2022-10-24T04:40:31.896Z,7.60
2022-10-24T04:45:37.343Z,7.17
2022-10-24T04:50:44.377Z,7.47
2022-10-24T04:55:50.501Z,7.57
2022-10-24T05:00:56.110Z,7.30
2022-10-24T05:06:01.645Z,7.90
2022-10-24T05:11:07.168Z,7.57
2022-10-24T05:16:12.793Z,6.97
2022-10-24T05:21:18.822Z,7.80
2022-10-24T05:26:27.101Z,7.40
2022-10-24T05:31:34.257Z,8.83
2022-10-24T05:36:39.791Z,8.90
2022-10-24T05:41:47.130Z,8.97
2022-10-24T05:46:53.107Z,8.67
2022-10-24T05:51:58.631Z,8.67
2022-10-24T05:57:04.178Z,8.50
2022-10-24T06:02:11.202Z,8.50
2022-10-24T06:07:16.868Z,8.13
2022-10-24T06:12:22.315Z,8.47
2022-10-24T06:17:28.149Z,9.17
2022-10-24T06:22:33.833Z,8.13
2022-10-24T06:27:39.783Z,8.63
2022-10-24T06:32:45.681Z,8.50
2022-10-24T06:37:51.963Z,8.23
2022-10-24T06:42:58.764Z,8.53
2022-10-24T06:48:04.330Z,9.33
2022-10-24T06:53:11.376Z,8.07
2022-10-24T06:58:16.938Z,9.20
2022-10-24T07:03:22.489Z,7.77
2022-10-24T07:08:28.060Z,7.60
2022-10-24T07:13:33.572Z,7.37
2022-10-24T07:18:39.412Z,7.83
2022-10-24T07:23:46.000Z,7.33
2022-10-24T07:28:54.906Z,7.17
2022-10-24T07:34:02.482Z,6.60
2022-10-24T07:39:08.419Z,6.90
2022-10-24T07:44:13.952Z,5.50
2022-10-24T07:49:19.337Z,6.33
2022-10-24T07:54:26.478Z,5.47
2022-10-24T07:59:41.679Z,5.23
2022-10-24T08:04:39.099Z,5.20
2022-10-24T08:09:47.188Z,4.97
2022-10-24T08:14:53.569Z,4.30
2022-10-24T08:19:59.090Z,3.97
2022-10-24T08:25:06.590Z,5.07
2022-10-24T08:30:12.663Z,4.53
2022-10-24T08:35:22.065Z,5.27
2022-10-24T08:40:27.672Z,3.93
2022-10-24T08:46:00.370Z,3.67
2022-10-24T08:51:23.957Z,3.90
2022-10-24T08:56:32.381Z,3.63
2022-10-24T09:01:43.591Z,3.83
2022-10-24T09:06:51.072Z,4.08
2022-10-24T09:11:59.589Z,2.90
2022-10-24T09:17:26.639Z,3.30
2022-10-24T09:22:35.076Z,2.93
2022-10-24T09:27:42.101Z,3.40
2022-10-24T09:32:48.127Z,2.87
2022-10-24T09:37:58.857Z,3.07
2022-10-24T09:43:09.991Z,3.00
2022-10-24T09:48:35.563Z,3.10
2022-10-24T09:53:44.170Z,2.30
2022-10-24T09:58:49.706Z,2.53
2022-10-24T10:04:09.983Z,2.70
2022-10-24T10:09:16.720Z,2.73
2022-10-24T10:14:26.913Z,2.40
2022-10-24T10:19:35.950Z,2.57
2022-10-24T10:24:46.258Z,2.97
2022-10-24T10:29:54.163Z,2.57
2022-10-24T10:35:02.620Z,3.13
2022-10-24T10:40:16.973Z,2.30
2022-10-24T10:45:34.691Z,2.40
2022-10-24T10:50:52.236Z,3.00
2022-10-24T10:56:10.739Z,2.80
2022-10-24T11:01:24.866Z,2.77
2022-10-24T11:06:45.709Z,2.27
2022-10-24T11:12:06.237Z,2.50
2022-10-24T11:17:17.934Z,2.13
2022-10-24T11:22:29.681Z,3.10
2022-10-24T11:27:38.099Z,2.00
2022-10-24T11:32:52.275Z,2.67
2022-10-24T11:38:21.736Z,2.80
2022-10-24T11:43:38.602Z,2.20
2022-10-24T11:48:59.422Z,2.20
2022-10-24T11:54:07.958Z,2.47
2022-10-24T11:59:25.732Z,2.57
2022-10-24T12:05:07.439Z,2.40
2022-10-24T12:10:47.641Z,2.43
2022-10-24T12:15:57.073Z,2.67
2022-10-24T12:21:05.577Z,2.10
2022-10-24T12:26:18.528Z,2.20
2022-10-24T12:31:33.169Z,2.60
2022-10-24T12:37:09.142Z,1.90
2022-10-24T12:42:26.724Z,2.10
2022-10-24T12:47:47.091Z,2.87
2022-10-24T12:52:55.537Z,2.07
2022-10-24T12:58:01.831Z,2.20
2022-10-24T13:03:44.119Z,2.67
2022-10-24T13:08:58.694Z,2.40
2022-10-24T13:14:23.945Z,2.10
2022-10-24T13:19:31.306Z,1.60
2022-10-24T13:24:40.587Z,2.30
2022-10-24T13:29:49.151Z,2.03
2022-10-24T13:34:56.716Z,2.57
2022-10-24T13:40:21.912Z,2.03
2022-10-24T13:45:47.141Z,2.17
2022-10-24T13:51:10.770Z,2.47
2022-10-24T13:56:17.751Z,2.43
2022-10-24T14:01:31.630Z,2.03
2022-10-24T14:06:37.697Z,2.20
2022-10-24T14:11:49.325Z,2.20
2022-10-24T14:17:28.969Z,1.83
2022-10-24T14:22:40.557Z,1.87
2022-10-24T14:27:46.849Z,2.00
2022-10-24T14:33:07.399Z,2.30
2022-10-24T14:38:15.826Z,2.20
2022-10-24T14:43:24.259Z,2.10
2022-10-24T14:48:30.755Z,2.00
2022-10-24T14:53:38.087Z,2.20
2022-10-24T14:58:43.807Z,5.47
2022-10-24T15:03:58.169Z,6.77
2022-10-24T15:09:13.075Z,5.73
2022-10-24T15:14:47.162Z,3.43
2022-10-24T15:19:55.600Z,2.80
2022-10-24T15:25:04.154Z,2.33
2022-10-24T15:30:23.283Z,3.03
2022-10-24T15:35:29.864Z,1.90
2022-10-24T15:40:36.366Z,2.30
2022-10-24T15:45:42.610Z,2.07
2022-10-24T15:50:48.475Z,2.13
2022-10-24T15:55:53.993Z,2.07
2022-10-24T16:01:00.787Z,2.17
2022-10-24T16:06:06.499Z,2.00
2022-10-24T16:11:13.514Z,2.37
2022-10-24T16:16:18.950Z,2.00
2022-10-24T16:21:24.987Z,2.57
2022-10-24T16:26:30.370Z,2.20
2022-10-24T16:31:36.284Z,1.90
2022-10-24T16:36:43.390Z,2.20
2022-10-24T16:41:48.881Z,2.33
2022-10-24T16:46:54.977Z,2.60
2022-10-24T16:52:00.552Z,2.37
2022-10-24T16:57:06.512Z,2.40
2022-10-24T17:02:14.388Z,2.20
2022-10-24T17:07:20.002Z,2.40
2022-10-24T17:12:27.313Z,2.30
2022-10-24T17:17:34.017Z,2.80
2022-10-24T17:22:41.581Z,2.47
2022-10-24T17:27:47.574Z,2.10
2022-10-24T17:32:54.064Z,2.20
2022-10-24T17:38:19.296Z,2.17
2022-10-24T17:43:27.419Z,2.03
2022-10-24T17:48:32.933Z,2.53
2022-10-24T17:53:38.549Z,2.17
2022-10-24T17:58:44.401Z,2.63
2022-10-24T18:03:49.986Z,2.60
2022-10-24T18:08:56.585Z,2.83
2022-10-24T18:14:02.055Z,2.37
2022-10-24T18:19:08.215Z,2.27
2022-10-24T18:24:14.787Z,2.73
2022-10-24T18:29:20.244Z,2.30
2022-10-24T18:34:25.845Z,2.53
2022-10-24T18:39:31.381Z,2.70
2022-10-24T18:44:37.915Z,2.20
2022-10-24T18:49:44.732Z,2.60
2022-10-24T18:54:57.740Z,2.70
2022-10-24T19:00:03.972Z,3.40
2022-10-24T19:05:19.130Z,2.30
2022-10-24T19:10:29.008Z,2.83
2022-10-24T19:15:35.463Z,3.10
2022-10-24T19:20:42.459Z,2.77
2022-10-24T19:25:48.090Z,2.70
2022-10-24T19:30:54.097Z,2.70
2022-10-24T19:36:01.040Z,2.47
2022-10-24T19:41:09.020Z,2.73
2022-10-24T19:46:19.853Z,2.50
2022-10-24T19:51:23.235Z,3.40
2022-10-24T19:56:30.503Z,2.80
2022-10-24T20:01:37.708Z,2.83
2022-10-24T20:06:43.250Z,2.53
2022-10-24T20:11:48.776Z,2.17
2022-10-24T20:16:54.310Z,2.73
2022-10-24T20:22:02.335Z,3.27
2022-10-24T20:32:12.792Z,3.57
2022-10-24T20:37:18.248Z,3.00
2022-10-24T20:42:23.644Z,3.10
2022-10-24T20:47:30.162Z,2.53
2022-10-24T20:52:36.089Z,2.70
2022-10-24T20:57:41.620Z,2.27
2022-10-24T21:02:47.690Z,2.30
2022-10-24T21:07:53.460Z,2.30
2022-10-24T21:12:59.068Z,2.70
2022-10-24T21:18:05.473Z,2.70
2022-10-24T21:23:10.992Z,2.17
2022-10-24T21:28:16.463Z,2.30
2022-10-24T21:33:21.861Z,1.77
2022-10-24T21:38:27.605Z,2.17
2022-10-24T21:43:35.388Z,2.63
2022-10-24T21:48:42.196Z,2.47
2022-10-24T21:53:50.551Z,2.27
2022-10-24T21:59:00.427Z,1.97
2022-10-24T22:04:07.103Z,2.30
2022-10-24T22:09:18.364Z,2.20
2022-10-24T22:14:23.955Z,2.10
2022-10-24T22:19:29.690Z,2.33
2022-10-24T22:24:35.094Z,2.10
2022-10-24T22:29:40.800Z,2.47
2022-10-24T22:34:46.709Z,2.60
2022-10-24T22:39:52.793Z,2.37
2022-10-24T22:44:58.996Z,2.27
2022-10-24T22:50:22.312Z,1.93
2022-10-24T22:55:37.084Z,2.17
2022-10-24T23:00:43.000Z,2.30
2022-10-24T23:06:09.875Z,2.10
2022-10-24T23:11:15.971Z,2.00
2022-10-24T23:16:31.001Z,2.30
2022-10-24T23:21:39.449Z,2.30
2022-10-24T23:26:53.889Z,2.30
2022-10-24T23:32:00.312Z,2.20
2022-10-24T23:37:06.906Z,3.50
2022-10-24T23:42:13.192Z,2.50
2022-10-24T23:53:06.703Z,2.23
2022-10-24T23:58:14.881Z,2.87
